Time;durP1;ratioP1;P1;durP2;ratioP2;P2;SDS_P1;SDS_P2;PMS_P1;PMS_P2;Temp;Humidity;BMP_temperature;BMP_pressure;BME280_temperature;BME280_humidity;BME280_pressure;Samples;Min_cycle;Max_cycle;Signal;HPM_P1;HPM_P2
2024/01/30 00:18:18;;;;;;;47.27;26.47;;;-0.60;99.90;;;;;;5590570;24;20196;-84
2024/01/30 00:48:46;;;;;;;46.70;27.57;;;-0.70;99.90;;;;;;5635036;24;20313;-84
2024/01/30 01:14:15;;;;;;;57.23;30.13;;;-1.20;99.90;;;;;;5922919;23;20177;-86
2024/01/30 01:39:17;;;;;;;55.90;31.27;;;-1.90;99.90;;;;;;5711401;24;20477;-83
2024/01/30 01:54:48;;;;;;;50.80;27.17;;;-2.10;99.90;;;;;;5743205;24;20196;-82
2024/01/30 02:25:09;;;;;;;50.00;26.83;;;-1.50;99.90;;;;;;5857373;23;20516;-88
2024/01/30 03:00:53;;;;;;;48.87;25.77;;;-1.20;99.90;;;;;;5985207;23;20303;-84
2024/01/30 03:05:13;;;;;;;47.00;27.17;;;-1.10;99.90;;;;;;5863996;23;20238;-85
2024/01/30 03:26:12;;;;;;;52.23;27.60;;;-1.00;99.90;;;;;;5838564;23;20172;-84
2024/01/30 03:46:25;;;;;;;49.47;27.17;;;-1.00;99.90;;;;;;5665083;24;20656;-83
2024/01/30 04:16:29;;;;;;;46.97;29.07;;;-0.90;99.90;;;;;;5489901;25;20360;-84
2024/01/30 04:57:00;;;;;;;54.93;27.73;;;-1.90;99.90;;;;;;5731200;24;20577;-83
2024/01/30 05:35:54;;;;;;;46.80;27.60;;;-2.30;99.90;;;;;;5468408;25;20203;-84
2024/01/30 05:55:29;;;;;;;51.93;28.27;;;-2.40;99.90;;;;;;5385862;26;20215;-85
2024/01/30 07:05:49;;;;;;;51.53;28.70;;;-1.60;99.90;;;;;;5657505;24;20547;-87
2024/01/30 07:31:36;;;;;;;56.83;31.70;;;-0.70;99.90;;;;;;5687007;24;20273;-83
2024/01/30 07:51:52;;;;;;;57.43;33.03;;;0.70;99.90;;;;;;5553860;25;20561;-80
2024/01/30 08:37:36;;;;;;;39.00;23.70;;;2.10;99.90;;;;;;5557255;24;20255;-81
2024/01/30 09:02:55;;;;;;;31.67;18.43;;;2.40;99.90;;;;;;5779910;23;20181;-84
2024/01/30 09:28:24;;;;;;;29.77;18.10;;;3.40;99.90;;;;;;5680669;24;20324;-85
2024/01/30 10:08:56;;;;;;;26.13;15.90;;;4.50;94.30;;;;;;5792243;23;20369;-83
2024/01/30 10:39:23;;;;;;;24.13;15.27;;;5.00;90.80;;;;;;5706533;24;20722;-83
2024/01/30 11:19:26;;;;;;;23.43;15.03;;;5.60;87.30;;;;;;5806027;23;20700;-82
2024/01/30 11:44:50;;;;;;;22.80;14.43;;;6.00;83.80;;;;;;5632956;24;20587;-83
2024/01/30 12:05:35;;;;;;;21.27;13.53;;;6.10;84.50;;;;;;5652247;24;20381;-82
2024/01/30 12:46:17;;;;;;;19.70;13.47;;;6.40;82.00;;;;;;5781373;23;20329;-81
2024/01/30 13:06:39;;;;;;;23.30;13.57;;;6.60;81.60;;;;;;5855480;23;20394;-80
2024/01/30 13:41:57;;;;;;;21.73;13.13;;;6.70;80.80;;;;;;5552386;24;20178;-83
2024/01/30 14:07:26;;;;;;;21.60;13.83;;;6.40;81.20;;;;;;5742451;23;20329;-81
2024/01/30 14:37:44;;;;;;;25.80;13.97;;;5.90;84.40;;;;;;5602620;24;20717;-81
2024/01/30 15:07:47;;;;;;;26.23;15.33;;;5.00;89.60;;;;;;5751633;24;20586;-86
2024/01/30 15:28:37;;;;;;;25.17;14.13;;;4.60;91.80;;;;;;5692541;24;20205;-84
2024/01/30 15:54:00;;;;;;;20.27;12.70;;;4.50;92.10;;;;;;5716716;24;20706;-87
2024/01/30 16:14:01;;;;;;;26.47;14.40;;;4.10;92.80;;;;;;5711296;24;20200;-87
2024/01/30 16:38:59;;;;;;;22.90;15.30;;;3.20;96.70;;;;;;5552591;25;20841;-84
2024/01/30 16:59:59;;;;;;;26.73;14.67;;;3.20;97.90;;;;;;5667171;24;20188;-87
2024/01/30 18:10:59;;;;;;;34.23;20.17;;;3.20;96.10;;;;;;5719517;24;20237;-85
2024/01/30 18:15:20;;;;;;;38.93;21.23;;;3.10;97.20;;;;;;5610450;24;20660;-87
2024/01/30 18:36:17;;;;;;;34.17;21.03;;;3.00;98.60;;;;;;5700850;24;20795;-84
2024/01/30 19:57:18;;;;;;;36.30;21.57;;;2.00;99.90;;;;;;5777150;24;20967;-84
2024/01/30 20:22:36;;;;;;;40.73;22.90;;;2.90;99.90;;;;;;5921233;23;20202;-85
2024/01/30 20:38:02;;;;;;;34.07;20.93;;;2.60;99.90;;;;;;5800177;24;20237;-84
2024/01/30 21:02:40;;;;;;;40.03;23.10;;;2.40;99.90;;;;;;5638347;25;20496;-86
2024/01/30 21:28:26;;;;;;;36.30;23.37;;;2.50;99.90;;;;;;5806998;23;20372;-83
2024/01/30 21:48:19;;;;;;;38.30;23.03;;;2.20;99.90;;;;;;5867644;24;20531;-86
2024/01/30 22:08:59;;;;;;;33.60;22.27;;;2.20;99.90;;;;;;5811665;24;20693;-86
